createdAt,value
2018-09-21T00:01:06.538Z,0.00
2018-09-21T00:02:06.494Z,0.00
2018-09-21T00:04:20.801Z,0.00
2018-09-21T00:04:59.774Z,0.00
2018-09-21T00:06:53.113Z,0.00
2018-09-21T00:07:53.060Z,0.00
2018-09-21T00:09:46.385Z,0.00
2018-09-21T00:10:46.349Z,0.00
2018-09-21T00:12:39.676Z,0.00
2018-09-21T00:13:39.626Z,0.00
2018-09-21T00:15:32.937Z,0.00
2018-09-21T00:16:32.910Z,0.00
2018-09-21T00:18:26.231Z,0.00
2018-09-21T00:19:26.191Z,0.00
2018-09-21T00:21:19.506Z,0.00
2018-09-21T00:22:19.479Z,0.00
2018-09-21T00:24:12.802Z,0.00
2018-09-21T00:25:12.761Z,0.00
2018-09-21T00:27:06.077Z,0.00
2018-09-21T00:28:06.031Z,0.00
2018-09-21T00:29:59.347Z,0.00
2018-09-21T00:30:59.320Z,0.00
2018-09-21T00:32:52.635Z,0.00
2018-09-21T00:33:52.600Z,0.00
2018-09-21T00:35:45.907Z,0.00
2018-09-21T00:36:45.875Z,0.00
2018-09-21T00:38:39.205Z,0.00
2018-09-21T00:39:39.157Z,0.00
2018-09-21T00:41:32.481Z,0.00
2018-09-21T00:42:32.445Z,0.00
2018-09-21T00:44:25.762Z,0.00
2018-09-21T00:45:25.731Z,0.00
2018-09-21T00:47:19.052Z,0.00
2018-09-21T00:48:19.004Z,0.00
2018-09-21T00:50:12.323Z,0.00
2018-09-21T00:51:12.286Z,0.00
2018-09-21T00:53:05.618Z,0.00
2018-09-21T00:54:05.571Z,0.00
2018-09-21T00:55:58.876Z,0.00
2018-09-21T00:56:58.841Z,0.00
2018-09-21T00:58:52.167Z,0.00
2018-09-21T00:59:52.128Z,0.00
2018-09-21T01:01:45.453Z,0.00
2018-09-21T01:02:45.420Z,0.00
2018-09-21T01:04:38.736Z,0.00
2018-09-21T01:05:38.693Z,0.00
2018-09-21T01:07:32.001Z,0.00
2018-09-21T01:08:31.973Z,0.00
2018-09-21T01:10:25.307Z,0.00
2018-09-21T01:11:25.254Z,0.00
2018-09-21T01:13:18.566Z,0.00
2018-09-21T01:14:18.541Z,0.00
2018-09-21T01:16:11.858Z,0.00
2018-09-21T01:17:11.811Z,0.00
2018-09-21T01:19:05.134Z,0.00
2018-09-21T01:20:05.097Z,0.00
2018-09-21T01:21:58.422Z,0.00
2018-09-21T01:22:58.387Z,0.00
2018-09-21T01:24:51.698Z,0.00
2018-09-21T01:25:51.667Z,0.00
2018-09-21T01:27:44.963Z,0.00
2018-09-21T01:28:44.952Z,0.00
2018-09-21T01:30:38.273Z,0.00
2018-09-21T01:31:38.219Z,0.00
2018-09-21T01:33:31.546Z,0.00
2018-09-21T01:34:31.505Z,0.00
2018-09-21T01:36:24.827Z,0.00
2018-09-21T01:37:24.790Z,0.00
2018-09-21T01:39:18.095Z,0.00
2018-09-21T01:40:18.064Z,0.00
2018-09-21T01:42:11.391Z,0.00
2018-09-21T01:43:11.344Z,0.00
2018-09-21T01:45:04.667Z,0.00
2018-09-21T01:46:04.624Z,0.00
2018-09-21T01:47:57.938Z,0.00
2018-09-21T01:48:57.903Z,0.00
2018-09-21T01:50:51.233Z,0.00
2018-09-21T01:51:51.192Z,0.00
2018-09-21T01:53:44.524Z,0.00
2018-09-21T01:54:44.469Z,0.00
2018-09-21T01:56:37.794Z,0.00
2018-09-21T01:57:37.755Z,0.00
2018-09-21T01:59:31.069Z,0.00
2018-09-21T02:00:31.025Z,0.00
2018-09-21T02:02:24.345Z,0.00
2018-09-21T02:03:24.309Z,0.00
2018-09-21T02:05:17.633Z,0.00
2018-09-21T02:06:17.603Z,0.00
2018-09-21T02:08:10.929Z,0.00
2018-09-21T02:09:10.884Z,0.00
2018-09-21T02:11:04.200Z,0.00
2018-09-21T02:12:04.155Z,0.00
2018-09-21T02:13:57.473Z,0.00
2018-09-21T02:14:57.436Z,0.00
2018-09-21T02:16:50.756Z,0.00
2018-09-21T02:17:50.721Z,0.00
2018-09-21T02:19:44.039Z,0.00
2018-09-21T02:20:44.009Z,0.00
2018-09-21T02:22:37.345Z,0.00
2018-09-21T02:23:37.279Z,0.00
2018-09-21T02:25:30.606Z,0.00
2018-09-21T02:26:30.556Z,0.00
2018-09-21T02:28:23.889Z,0.00
2018-09-21T02:29:23.839Z,0.00
2018-09-21T02:31:17.175Z,0.00
2018-09-21T02:32:17.126Z,0.00
2018-09-21T02:34:10.465Z,0.00
2018-09-21T02:35:10.417Z,0.00
2018-09-21T02:37:03.767Z,0.00
2018-09-21T02:38:03.720Z,0.00
2018-09-21T02:39:57.045Z,0.00
2018-09-21T02:40:57.011Z,0.00
2018-09-21T02:42:50.335Z,0.00
2018-09-21T02:43:50.294Z,0.00
2018-09-21T02:45:43.600Z,0.00
2018-09-21T02:46:43.571Z,0.00
2018-09-21T02:48:36.958Z,0.00
2018-09-21T02:49:36.845Z,0.00
2018-09-21T02:51:30.165Z,0.00
2018-09-21T02:52:30.131Z,0.00
2018-09-21T02:54:23.453Z,0.00
2018-09-21T02:55:23.403Z,0.00
2018-09-21T02:57:16.740Z,0.00
2018-09-21T02:58:16.697Z,0.00
2018-09-21T03:00:10.035Z,0.00
2018-09-21T03:01:09.972Z,0.00
2018-09-21T03:03:03.301Z,0.00
2018-09-21T03:04:03.246Z,0.00
2018-09-21T03:05:56.563Z,0.00
2018-09-21T03:06:56.533Z,0.00
2018-09-21T03:08:49.859Z,0.00
2018-09-21T03:09:49.809Z,0.00
2018-09-21T03:11:43.116Z,0.00
2018-09-21T03:12:43.090Z,0.00
2018-09-21T03:14:36.419Z,0.00
2018-09-21T03:15:36.370Z,0.00
2018-09-21T03:17:29.716Z,0.00
2018-09-21T03:18:29.651Z,0.00
2018-09-21T03:20:22.964Z,0.00
2018-09-21T03:21:22.931Z,0.00
2018-09-21T03:23:16.257Z,0.00
2018-09-21T03:24:16.218Z,0.00
2018-09-21T03:26:09.527Z,0.00
2018-09-21T03:27:09.510Z,0.00
2018-09-21T03:29:02.830Z,0.00
2018-09-21T03:30:02.789Z,0.00
2018-09-21T03:31:56.089Z,0.00
2018-09-21T03:32:56.057Z,0.00
2018-09-21T03:34:49.432Z,0.00
2018-09-21T03:35:49.343Z,0.00
2018-09-21T03:37:42.683Z,0.00
2018-09-21T03:38:42.628Z,0.00
2018-09-21T03:40:35.950Z,0.00
2018-09-21T03:41:35.923Z,0.00
2018-09-21T03:43:29.279Z,0.00
2018-09-21T03:44:29.204Z,0.00
2018-09-21T03:46:22.514Z,0.00
2018-09-21T03:47:22.489Z,0.00
2018-09-21T03:49:15.837Z,0.00
2018-09-21T03:50:15.768Z,0.00
2018-09-21T03:52:09.101Z,0.00
2018-09-21T03:53:09.074Z,0.00
2018-09-21T03:55:02.404Z,0.00
2018-09-21T03:56:02.349Z,0.00
2018-09-21T03:57:55.674Z,0.00
2018-09-21T03:58:55.640Z,0.00
2018-09-21T04:00:48.966Z,0.00
2018-09-21T04:01:48.926Z,0.00
2018-09-21T04:03:42.254Z,0.00
2018-09-21T04:04:42.218Z,0.00
2018-09-21T04:06:35.542Z,0.00
2018-09-21T04:07:35.505Z,0.00
2018-09-21T04:09:28.855Z,0.00
2018-09-21T04:10:28.843Z,0.00
2018-09-21T04:12:22.110Z,0.00
2018-09-21T04:13:22.065Z,0.00
2018-09-21T04:15:15.409Z,0.00
2018-09-21T04:16:15.360Z,0.00
2018-09-21T04:18:08.697Z,0.00
2018-09-21T04:19:08.674Z,0.00
2018-09-21T04:21:01.985Z,0.00
2018-09-21T04:22:01.937Z,0.00
2018-09-21T04:23:55.256Z,0.00
2018-09-21T04:24:55.222Z,0.00
2018-09-21T04:26:48.549Z,0.00
2018-09-21T04:27:48.524Z,0.00
2018-09-21T04:29:41.834Z,0.00
2018-09-21T04:30:41.796Z,0.00
2018-09-21T04:32:35.135Z,0.00
2018-09-21T04:33:35.081Z,0.00
2018-09-21T04:35:28.405Z,0.00
2018-09-21T04:36:28.370Z,0.00
2018-09-21T04:38:21.706Z,0.00
2018-09-21T04:39:21.669Z,0.00
2018-09-21T04:41:14.991Z,0.00
2018-09-21T04:42:14.941Z,0.00
2018-09-21T04:44:08.285Z,0.00
2018-09-21T04:45:08.227Z,0.00
2018-09-21T04:47:01.570Z,0.00
2018-09-21T04:48:01.506Z,0.00
2018-09-21T04:49:54.864Z,0.00
2018-09-21T04:50:54.837Z,0.00
2018-09-21T04:52:48.155Z,0.00
2018-09-21T04:53:48.107Z,0.00
2018-09-21T04:55:41.435Z,0.00
2018-09-21T04:56:41.401Z,0.00
2018-09-21T04:58:34.747Z,0.00
2018-09-21T04:59:34.690Z,0.00
2018-09-21T05:01:28.026Z,0.00
2018-09-21T05:02:27.975Z,0.00
2018-09-21T05:04:21.289Z,0.00
2018-09-21T05:05:21.251Z,0.00
2018-09-21T05:07:14.575Z,0.00
2018-09-21T05:08:14.541Z,0.00
2018-09-21T05:10:07.851Z,0.00
2018-09-21T05:11:07.821Z,0.00
2018-09-21T05:13:01.141Z,0.00
2018-09-21T05:14:01.102Z,0.00
2018-09-21T05:15:54.436Z,0.00
2018-09-21T05:16:54.398Z,0.00
2018-09-21T05:18:47.762Z,0.00
2018-09-21T05:19:47.757Z,0.00
2018-09-21T05:21:42.035Z,0.00
2018-09-21T05:22:42.008Z,0.00
2018-09-21T05:24:35.329Z,0.00
2018-09-21T05:25:35.296Z,0.00
2018-09-21T05:27:28.634Z,0.00
2018-09-21T05:28:28.569Z,0.00
2018-09-21T05:30:21.882Z,0.00
2018-09-21T05:31:21.853Z,0.00
2018-09-21T05:33:15.188Z,0.00
2018-09-21T05:34:15.150Z,0.00
2018-09-21T05:36:08.460Z,0.00
2018-09-21T05:37:08.422Z,0.00
2018-09-21T05:39:01.777Z,0.00
2018-09-21T05:40:01.724Z,0.00
2018-09-21T05:41:55.033Z,0.00
2018-09-21T05:42:55.002Z,0.00
2018-09-21T05:44:48.341Z,0.00
2018-09-21T05:45:48.291Z,0.00
2018-09-21T05:47:41.615Z,0.00
2018-09-21T05:48:41.574Z,0.00
2018-09-21T05:50:34.903Z,0.00
2018-09-21T05:51:34.872Z,0.00
2018-09-21T05:53:28.194Z,0.00
2018-09-21T05:54:28.149Z,0.00
2018-09-21T05:56:21.469Z,0.00
2018-09-21T05:57:21.462Z,0.00
2018-09-21T05:59:14.779Z,0.00
2018-09-21T06:00:14.720Z,0.00
2018-09-21T06:02:08.103Z,0.00
2018-09-21T06:03:08.015Z,0.00
2018-09-21T06:05:01.329Z,0.00
2018-09-21T06:06:01.289Z,0.00
2018-09-21T06:07:54.639Z,0.00
2018-09-21T06:08:54.565Z,0.00
2018-09-21T06:10:47.891Z,5.63
2018-09-21T06:11:47.855Z,5.63
2018-09-21T06:13:41.272Z,5.63
2018-09-21T06:14:41.140Z,5.63
2018-09-21T06:16:34.471Z,5.63
2018-09-21T06:17:34.428Z,5.63
2018-09-21T06:19:27.843Z,5.63
2018-09-21T06:20:27.721Z,5.63
2018-09-21T06:22:21.040Z,5.63
2018-09-21T06:23:21.006Z,5.63
2018-09-21T06:25:14.328Z,5.63
2018-09-21T06:26:14.296Z,5.63
2018-09-21T06:28:07.596Z,0.00
2018-09-21T06:29:07.571Z,0.00
2018-09-21T06:31:00.903Z,0.00
2018-09-21T06:32:00.962Z,0.00
2018-09-21T06:33:54.199Z,0.00
2018-09-21T06:34:54.149Z,0.00
2018-09-21T06:36:47.460Z,0.00
2018-09-21T06:37:47.434Z,0.00
2018-09-21T06:39:40.760Z,0.00
2018-09-21T06:40:40.723Z,0.00
2018-09-21T06:42:34.076Z,0.00
2018-09-21T06:43:33.997Z,0.00
2018-09-21T06:45:27.334Z,0.00
2018-09-21T06:46:27.281Z,0.00
2018-09-21T06:48:20.606Z,0.00
2018-09-21T06:49:20.554Z,0.00
2018-09-21T06:51:13.890Z,0.00
2018-09-21T06:52:13.848Z,5.63
2018-09-21T06:54:07.162Z,5.63
2018-09-21T06:55:07.129Z,5.63
2018-09-21T06:57:00.466Z,5.63
2018-09-21T06:58:00.430Z,5.63
2018-09-21T06:59:53.762Z,11.25
2018-09-21T07:00:53.721Z,11.25
2018-09-21T07:02:47.040Z,5.63
2018-09-21T07:03:46.996Z,11.25
2018-09-21T07:05:40.353Z,5.63
2018-09-21T07:06:40.283Z,5.63
2018-09-21T07:08:33.625Z,5.63
2018-09-21T07:09:33.585Z,5.63
2018-09-21T07:11:26.877Z,5.63
2018-09-21T07:12:26.850Z,5.63
2018-09-21T07:14:20.180Z,5.63
2018-09-21T07:15:20.126Z,11.25
2018-09-21T07:17:13.458Z,11.25
2018-09-21T07:18:13.412Z,11.25
2018-09-21T07:20:06.717Z,11.25
2018-09-21T07:21:06.701Z,11.25
2018-09-21T07:23:00.051Z,11.25
2018-09-21T07:23:59.972Z,11.25
2018-09-21T07:25:53.311Z,11.25
2018-09-21T07:26:53.262Z,11.25
2018-09-21T07:28:46.573Z,11.25
2018-09-21T07:29:46.548Z,5.63
2018-09-21T07:31:39.879Z,5.63
2018-09-21T07:32:39.823Z,5.63
2018-09-21T07:34:33.147Z,5.63
2018-09-21T07:35:33.128Z,5.63
2018-09-21T07:37:26.504Z,5.63
2018-09-21T07:38:26.393Z,5.63
2018-09-21T07:40:19.708Z,11.25
2018-09-21T07:41:19.670Z,11.25
2018-09-21T07:43:13.048Z,11.25
2018-09-21T07:44:12.964Z,11.25
2018-09-21T07:46:06.283Z,11.25
2018-09-21T07:47:06.248Z,11.25
2018-09-21T07:48:59.606Z,11.25
2018-09-21T07:49:59.518Z,11.25
2018-09-21T07:51:52.850Z,11.25
2018-09-21T07:52:52.810Z,11.25
2018-09-21T07:54:46.117Z,11.25
2018-09-21T07:55:46.092Z,11.25
2018-09-21T07:57:39.423Z,11.25
2018-09-21T07:58:39.387Z,11.25
2018-09-21T08:00:32.698Z,11.25
2018-09-21T08:01:32.665Z,11.25
2018-09-21T08:03:25.998Z,11.25
2018-09-21T08:04:25.953Z,11.25
2018-09-21T08:06:19.288Z,16.88
2018-09-21T08:07:19.304Z,16.88
2018-09-21T08:09:12.570Z,16.88
2018-09-21T08:10:12.519Z,16.88
2018-09-21T08:12:05.860Z,16.88
2018-09-21T08:13:05.814Z,16.88
2018-09-21T08:14:59.129Z,16.88
2018-09-21T08:15:59.099Z,22.50
2018-09-21T08:17:52.429Z,22.50
2018-09-21T08:18:52.384Z,22.50
2018-09-21T08:20:45.700Z,22.50
2018-09-21T08:21:45.659Z,22.50
2018-09-21T08:23:38.995Z,16.88
2018-09-21T08:24:38.935Z,16.88
2018-09-21T08:26:32.291Z,11.25
2018-09-21T08:27:32.226Z,11.25
2018-09-21T08:29:25.556Z,11.25
2018-09-21T08:30:25.508Z,11.25
2018-09-21T08:32:18.840Z,5.63
2018-09-21T08:33:18.874Z,5.63
2018-09-21T08:35:12.101Z,5.63
2018-09-21T08:36:12.081Z,5.63
2018-09-21T08:38:05.407Z,5.63
2018-09-21T08:39:05.363Z,5.63
2018-09-21T08:40:58.678Z,5.63
2018-09-21T08:41:58.640Z,5.63
2018-09-21T08:43:51.971Z,5.63
2018-09-21T08:44:51.918Z,0.00
2018-09-21T08:46:45.252Z,0.00
2018-09-21T08:47:45.208Z,0.00
2018-09-21T08:49:38.545Z,0.00
2018-09-21T08:50:38.502Z,0.00
2018-09-21T08:52:31.808Z,5.63
2018-09-21T08:53:31.785Z,5.63
2018-09-21T08:55:25.113Z,5.63
2018-09-21T08:56:25.064Z,5.63
2018-09-21T08:58:18.402Z,5.63
2018-09-21T08:59:18.350Z,5.63
2018-09-21T09:01:11.664Z,5.63
2018-09-21T09:02:11.618Z,5.63
2018-09-21T09:04:04.943Z,5.63
2018-09-21T09:05:04.897Z,5.63
2018-09-21T09:06:58.201Z,5.63
2018-09-21T09:07:58.161Z,5.63
2018-09-21T09:09:51.478Z,11.25
2018-09-21T09:10:51.433Z,11.25
2018-09-21T09:12:44.743Z,16.88
2018-09-21T09:13:44.702Z,16.88
2018-09-21T09:15:38.034Z,16.88
2018-09-21T09:16:37.981Z,16.88
2018-09-21T09:18:31.288Z,22.50
2018-09-21T09:19:31.247Z,28.13
2018-09-21T09:21:24.568Z,22.50
2018-09-21T09:22:24.521Z,22.50
2018-09-21T09:24:17.828Z,22.50
2018-09-21T09:25:17.794Z,22.50
2018-09-21T09:27:11.108Z,16.88
2018-09-21T09:28:11.065Z,16.88
2018-09-21T09:30:04.448Z,16.88
2018-09-21T09:31:04.337Z,16.88
2018-09-21T09:32:57.649Z,16.88
2018-09-21T09:33:57.602Z,16.88
2018-09-21T09:35:50.907Z,22.50
2018-09-21T09:36:50.889Z,22.50
2018-09-21T09:38:44.170Z,28.13
2018-09-21T09:39:44.138Z,33.75
2018-09-21T09:41:37.451Z,28.13
2018-09-21T09:42:37.486Z,22.50
2018-09-21T09:44:30.732Z,11.25
2018-09-21T09:45:30.677Z,16.88
2018-09-21T09:47:23.975Z,16.88
2018-09-21T09:48:23.996Z,16.88
2018-09-21T09:50:17.265Z,16.88
2018-09-21T09:51:17.231Z,16.88
2018-09-21T09:53:10.545Z,16.88
2018-09-21T09:54:10.484Z,11.25
2018-09-21T09:56:03.810Z,11.25
2018-09-21T09:57:03.761Z,11.25
2018-09-21T09:58:57.069Z,16.88
2018-09-21T09:59:57.045Z,16.88
2018-09-21T10:01:50.365Z,16.88
2018-09-21T10:02:50.330Z,16.88
2018-09-21T10:04:43.611Z,16.88
2018-09-21T10:05:43.594Z,16.88
2018-09-21T10:07:36.897Z,16.88
2018-09-21T10:08:36.845Z,16.88
2018-09-21T10:10:30.211Z,16.88
2018-09-21T10:11:30.113Z,16.88
2018-09-21T10:13:23.443Z,11.25
2018-09-21T10:14:23.393Z,11.25
2018-09-21T10:16:16.756Z,11.25
2018-09-21T10:17:16.666Z,11.25
2018-09-21T10:19:09.961Z,11.25
2018-09-21T10:20:09.934Z,16.88
2018-09-21T10:22:02.746Z,16.88
2018-09-21T10:23:02.704Z,16.88
2018-09-21T10:24:56.002Z,16.88
2018-09-21T10:25:55.958Z,16.88
2018-09-21T10:27:49.360Z,16.88
2018-09-21T10:28:49.390Z,16.88
2018-09-21T10:30:42.521Z,22.50
2018-09-21T10:31:42.498Z,22.50
2018-09-21T10:33:36.020Z,22.50
2018-09-21T10:34:35.859Z,22.50
2018-09-21T10:36:29.158Z,16.88
2018-09-21T10:37:29.046Z,16.88
2018-09-21T10:39:22.545Z,16.88
2018-09-21T10:40:22.356Z,16.88
2018-09-21T10:42:15.636Z,22.50
2018-09-21T10:43:15.665Z,22.50
2018-09-21T10:45:08.887Z,22.50
2018-09-21T10:46:08.857Z,22.50
2018-09-21T10:48:02.175Z,28.13
2018-09-21T10:49:02.117Z,28.13
2018-09-21T10:50:55.446Z,28.13
2018-09-21T10:51:55.395Z,33.75
2018-09-21T10:53:48.231Z,28.13
2018-09-21T10:54:48.161Z,28.13
2018-09-21T10:56:41.467Z,28.13
2018-09-21T10:57:41.431Z,28.13
2018-09-21T10:59:34.751Z,33.75
2018-09-21T11:00:34.744Z,28.13
2018-09-21T11:02:28.002Z,33.75
2018-09-21T11:03:27.993Z,33.75
2018-09-21T11:05:21.292Z,45.00
2018-09-21T11:06:21.248Z,50.63
2018-09-21T11:08:14.591Z,50.63
2018-09-21T11:09:14.521Z,56.25
2018-09-21T11:11:07.828Z,56.25
2018-09-21T11:12:07.800Z,45.00
2018-09-21T11:14:01.116Z,50.63
2018-09-21T11:15:01.078Z,56.25
2018-09-21T11:16:54.370Z,61.88
2018-09-21T11:17:54.336Z,61.88
2018-09-21T11:19:47.653Z,67.50
2018-09-21T11:20:47.610Z,67.50
2018-09-21T11:22:40.924Z,61.88
2018-09-21T11:23:40.882Z,67.50
2018-09-21T11:25:34.193Z,73.13
2018-09-21T11:26:34.147Z,90.00
2018-09-21T11:28:27.474Z,112.50
2018-09-21T11:29:27.428Z,151.88
2018-09-21T11:31:20.769Z,405.00
2018-09-21T11:32:20.704Z,388.13
2018-09-21T11:34:14.019Z,399.38
2018-09-21T11:35:13.980Z,382.50
2018-09-21T11:37:07.304Z,225.00
2018-09-21T11:38:07.259Z,326.25
2018-09-21T11:40:00.621Z,298.13
2018-09-21T11:41:00.595Z,236.25
2018-09-21T11:42:53.834Z,118.13
2018-09-21T11:43:53.816Z,163.13
2018-09-21T11:45:47.161Z,95.63
2018-09-21T11:46:47.161Z,90.00
2018-09-21T11:48:40.418Z,84.38
2018-09-21T11:49:40.382Z,61.88
2018-09-21T11:51:33.708Z,50.63
2018-09-21T11:52:33.668Z,39.38
2018-09-21T11:54:26.973Z,33.75
2018-09-21T11:55:26.944Z,28.13
2018-09-21T11:57:20.262Z,33.75
2018-09-21T11:58:20.221Z,28.13
2018-09-21T12:00:13.538Z,16.88
2018-09-21T12:01:13.499Z,11.25
2018-09-21T12:03:06.824Z,5.63
2018-09-21T12:04:06.774Z,5.63
2018-09-21T12:06:00.107Z,22.50
2018-09-21T12:07:00.056Z,39.38
2018-09-21T12:08:53.385Z,56.25
2018-09-21T12:09:53.325Z,61.88
2018-09-21T12:11:46.643Z,56.25
2018-09-21T12:12:46.604Z,67.50
2018-09-21T12:14:39.909Z,90.00
2018-09-21T12:15:39.885Z,95.63
2018-09-21T12:17:33.205Z,106.88
2018-09-21T12:18:33.145Z,95.63
2018-09-21T12:20:26.464Z,84.38
2018-09-21T12:21:26.424Z,90.00
2018-09-21T12:23:19.764Z,78.75
2018-09-21T12:24:19.713Z,67.50
2018-09-21T12:26:13.038Z,61.88
2018-09-21T12:27:12.996Z,67.50
2018-09-21T12:29:06.321Z,73.13
2018-09-21T12:30:06.271Z,73.13
2018-09-21T12:31:59.598Z,73.13
2018-09-21T12:32:59.546Z,78.75
2018-09-21T12:34:52.850Z,67.50
2018-09-21T12:35:52.877Z,67.50
2018-09-21T12:37:46.176Z,67.50
2018-09-21T12:38:46.149Z,67.50
2018-09-21T12:40:39.415Z,61.88
2018-09-21T12:41:39.375Z,61.88
2018-09-21T12:43:32.708Z,61.88
2018-09-21T12:44:32.769Z,61.88
2018-09-21T12:46:25.959Z,56.25
2018-09-21T12:47:25.933Z,56.25
2018-09-21T12:49:19.258Z,61.88
2018-09-21T12:50:19.270Z,61.88
2018-09-21T12:52:12.515Z,61.88
2018-09-21T12:53:12.468Z,61.88
2018-09-21T12:55:05.803Z,56.25
2018-09-21T12:56:05.749Z,56.25
2018-09-21T12:57:59.144Z,56.25
2018-09-21T12:58:59.028Z,56.25
2018-09-21T13:00:52.359Z,56.25
2018-09-21T13:01:52.323Z,56.25
2018-09-21T13:03:45.632Z,50.63
2018-09-21T13:04:45.593Z,50.63
2018-09-21T13:06:38.926Z,45.00
2018-09-21T13:07:38.872Z,45.00
2018-09-21T13:09:32.197Z,50.63
2018-09-21T13:10:32.143Z,50.63
2018-09-21T13:12:25.459Z,56.25
2018-09-21T13:13:25.423Z,50.63
2018-09-21T13:15:18.739Z,50.63
2018-09-21T13:16:18.694Z,45.00
2018-09-21T13:18:11.996Z,45.00
2018-09-21T13:19:11.971Z,45.00
2018-09-21T13:21:05.283Z,39.38
2018-09-21T13:22:05.244Z,39.38
2018-09-21T13:23:58.577Z,39.38
2018-09-21T13:24:58.551Z,39.38
2018-09-21T13:26:51.865Z,45.00
2018-09-21T13:27:51.801Z,45.00
2018-09-21T13:29:45.118Z,45.00
2018-09-21T13:30:45.070Z,45.00
2018-09-21T13:32:38.374Z,45.00
2018-09-21T13:33:38.359Z,45.00
2018-09-21T13:35:31.673Z,45.00
2018-09-21T13:36:31.619Z,45.00
2018-09-21T13:38:24.917Z,39.38
2018-09-21T13:39:24.887Z,39.38
2018-09-21T13:41:18.219Z,39.38
2018-09-21T13:42:18.184Z,39.38
2018-09-21T13:44:11.483Z,45.00
2018-09-21T13:45:11.443Z,45.00
2018-09-21T13:47:04.808Z,39.38
2018-09-21T13:48:04.724Z,45.00
2018-09-21T13:49:58.033Z,45.00
2018-09-21T13:50:57.992Z,45.00
2018-09-21T13:52:51.327Z,33.75
2018-09-21T13:53:51.264Z,33.75
2018-09-21T13:55:44.614Z,33.75
2018-09-21T13:56:44.558Z,33.75
2018-09-21T13:58:37.888Z,22.50
2018-09-21T13:59:37.840Z,16.88
2018-09-21T14:01:31.163Z,22.50
2018-09-21T14:02:31.119Z,16.88
2018-09-21T14:04:24.434Z,16.88
2018-09-21T14:05:24.407Z,16.88
2018-09-21T14:07:17.709Z,16.88
2018-09-21T14:08:17.659Z,11.25
2018-09-21T14:10:10.966Z,16.88
2018-09-21T14:11:10.932Z,22.50
2018-09-21T14:13:04.244Z,33.75
2018-09-21T14:14:04.199Z,39.38
2018-09-21T14:15:57.521Z,45.00
2018-09-21T14:16:57.480Z,45.00
2018-09-21T14:18:50.791Z,61.88
2018-09-21T14:19:50.749Z,56.25
2018-09-21T14:21:44.070Z,56.25
2018-09-21T14:22:44.045Z,56.25
2018-09-21T14:24:37.350Z,50.63
2018-09-21T14:25:37.302Z,56.25
2018-09-21T14:27:30.617Z,45.00
2018-09-21T14:28:30.577Z,45.00
2018-09-21T14:30:23.875Z,45.00
2018-09-21T14:31:23.854Z,50.63
2018-09-21T14:33:18.783Z,50.63
2018-09-21T14:34:17.127Z,50.63
2018-09-21T14:36:10.452Z,118.13
2018-09-21T14:37:10.410Z,61.88
2018-09-21T14:39:03.730Z,61.88
2018-09-21T14:40:03.693Z,67.50
2018-09-21T14:41:56.985Z,118.13
2018-09-21T14:42:56.966Z,73.13
2018-09-21T14:44:50.287Z,180.00
2018-09-21T14:45:50.246Z,174.38
2018-09-21T14:47:43.592Z,168.75
2018-09-21T14:48:43.520Z,163.13
2018-09-21T14:50:36.910Z,157.50
2018-09-21T14:51:36.795Z,163.13
2018-09-21T14:53:30.132Z,157.50
2018-09-21T14:54:30.079Z,157.50
2018-09-21T14:56:23.391Z,157.50
2018-09-21T14:57:23.357Z,146.25
2018-09-21T14:59:16.668Z,140.63
2018-09-21T15:00:16.633Z,140.63
2018-09-21T15:02:09.946Z,129.38
2018-09-21T15:03:09.907Z,129.38
2018-09-21T15:05:03.237Z,123.75
2018-09-21T15:06:03.198Z,123.75
2018-09-21T15:07:56.511Z,123.75
2018-09-21T15:08:56.481Z,118.13
2018-09-21T15:10:49.793Z,118.13
2018-09-21T15:11:49.750Z,118.13
2018-09-21T15:13:43.064Z,112.50
2018-09-21T15:14:43.033Z,118.13
2018-09-21T15:16:36.395Z,112.50
2018-09-21T15:17:36.312Z,112.50
2018-09-21T15:19:29.632Z,118.13
2018-09-21T15:20:29.607Z,118.13
2018-09-21T15:22:22.984Z,112.50
2018-09-21T15:23:22.873Z,112.50
2018-09-21T15:25:16.196Z,112.50
2018-09-21T15:26:16.147Z,106.88
2018-09-21T15:28:09.461Z,106.88
2018-09-21T15:29:09.429Z,106.88
2018-09-21T15:31:02.778Z,106.88
2018-09-21T15:32:02.714Z,106.88
2018-09-21T15:33:56.028Z,95.63
2018-09-21T15:34:55.987Z,101.25
2018-09-21T15:36:49.315Z,101.25
2018-09-21T15:37:49.283Z,84.38
2018-09-21T15:39:42.677Z,101.25
2018-09-21T15:40:42.563Z,101.25
2018-09-21T15:42:35.869Z,101.25
2018-09-21T15:43:35.891Z,101.25
2018-09-21T15:45:29.148Z,101.25
2018-09-21T15:46:29.110Z,101.25
2018-09-21T15:48:22.439Z,95.63
2018-09-21T15:49:22.410Z,90.00
2018-09-21T15:51:15.766Z,67.50
2018-09-21T15:52:15.732Z,90.00
2018-09-21T15:54:09.039Z,84.38
2018-09-21T15:55:09.010Z,84.38
2018-09-21T15:57:02.344Z,78.75
2018-09-21T15:58:02.296Z,73.13
2018-09-21T15:59:55.601Z,16.88
2018-09-21T16:00:55.594Z,28.13
2018-09-21T16:02:48.989Z,67.50
2018-09-21T16:03:48.842Z,67.50
2018-09-21T16:05:42.173Z,61.88
2018-09-21T16:06:42.140Z,67.50
2018-09-21T16:08:35.455Z,45.00
2018-09-21T16:09:35.406Z,39.38
2018-09-21T16:11:28.731Z,16.88
2018-09-21T16:12:28.690Z,50.63
2018-09-21T16:14:22.010Z,28.13
2018-09-21T16:15:21.950Z,16.88
2018-09-21T16:17:15.283Z,50.63
2018-09-21T16:18:15.236Z,50.63
2018-09-21T16:20:09.399Z,50.63
2018-09-21T16:21:09.355Z,33.75
2018-09-21T16:23:02.689Z,33.75
2018-09-21T16:24:02.649Z,16.88
2018-09-21T16:25:55.975Z,45.00
2018-09-21T16:26:55.943Z,50.63
2018-09-21T16:28:49.289Z,45.00
2018-09-21T16:29:49.246Z,45.00
2018-09-21T16:31:42.590Z,39.38
2018-09-21T16:32:42.540Z,39.38
2018-09-21T16:34:35.854Z,33.75
2018-09-21T16:35:35.805Z,33.75
2018-09-21T16:37:29.136Z,33.75
2018-09-21T16:38:29.086Z,33.75
2018-09-21T16:40:22.398Z,28.13
2018-09-21T16:41:22.368Z,28.13
2018-09-21T16:43:16.690Z,28.13
2018-09-21T16:44:16.641Z,28.13
2018-09-21T16:46:10.025Z,22.50
2018-09-21T16:47:09.911Z,22.50
2018-09-21T16:49:03.232Z,16.88
2018-09-21T16:50:03.189Z,16.88
2018-09-21T16:51:56.504Z,16.88
2018-09-21T16:52:56.458Z,11.25
2018-09-21T16:54:49.796Z,11.25
2018-09-21T16:55:49.750Z,11.25
2018-09-21T16:57:43.124Z,11.25
2018-09-21T16:58:43.112Z,11.25
2018-09-21T17:00:36.326Z,5.63
2018-09-21T17:01:36.300Z,5.63
2018-09-21T17:03:29.617Z,5.63
2018-09-21T17:04:29.659Z,5.63
2018-09-21T17:06:22.891Z,5.63
2018-09-21T17:07:22.847Z,5.63
2018-09-21T17:09:16.161Z,5.63
2018-09-21T17:10:16.121Z,5.63
2018-09-21T17:12:09.427Z,5.63
2018-09-21T17:13:09.396Z,5.63
2018-09-21T17:15:02.716Z,5.63
2018-09-21T17:16:02.670Z,5.63
2018-09-21T17:17:55.983Z,0.00
2018-09-21T17:18:55.947Z,0.00
2018-09-21T17:20:49.274Z,0.00
2018-09-21T17:21:49.221Z,0.00
2018-09-21T17:23:42.553Z,0.00
2018-09-21T17:24:42.504Z,0.00
2018-09-21T17:26:35.839Z,0.00
2018-09-21T17:27:35.783Z,0.00
2018-09-21T17:29:29.102Z,0.00
2018-09-21T17:30:29.056Z,0.00
2018-09-21T17:32:22.373Z,0.00
2018-09-21T17:33:22.334Z,0.00
2018-09-21T17:35:15.650Z,0.00
2018-09-21T17:36:15.603Z,0.00
2018-09-21T17:38:08.907Z,0.00
2018-09-21T17:39:08.867Z,0.00
2018-09-21T17:41:02.199Z,0.00
2018-09-21T17:42:02.158Z,0.00
2018-09-21T17:43:55.467Z,0.00
2018-09-21T17:44:55.427Z,0.00
2018-09-21T17:46:48.744Z,0.00
2018-09-21T17:47:48.702Z,0.00
2018-09-21T17:49:41.994Z,0.00
2018-09-21T17:50:41.977Z,0.00
2018-09-21T17:52:35.354Z,0.00
2018-09-21T17:53:35.244Z,0.00
2018-09-21T17:55:28.564Z,0.00
2018-09-21T17:56:28.517Z,0.00
2018-09-21T17:58:21.843Z,0.00
2018-09-21T17:59:21.803Z,0.00
2018-09-21T18:01:15.132Z,0.00
2018-09-21T18:02:15.077Z,0.00
2018-09-21T18:04:08.378Z,0.00
2018-09-21T18:05:08.345Z,0.00
2018-09-21T18:07:01.665Z,0.00
2018-09-21T18:08:01.628Z,0.00
2018-09-21T18:09:54.932Z,0.00
2018-09-21T18:10:54.910Z,0.00
2018-09-21T18:12:48.239Z,0.00
2018-09-21T18:13:48.174Z,0.00
2018-09-21T18:15:41.484Z,0.00
2018-09-21T18:16:41.459Z,0.00
2018-09-21T18:18:34.800Z,0.00
2018-09-21T18:19:34.753Z,0.00
2018-09-21T18:21:28.091Z,0.00
2018-09-21T18:22:28.023Z,0.00
2018-09-21T18:24:21.359Z,0.00
2018-09-21T18:25:21.290Z,0.00
2018-09-21T18:27:14.619Z,0.00
2018-09-21T18:28:14.570Z,0.00
2018-09-21T18:30:07.870Z,0.00
2018-09-21T18:31:07.835Z,0.00
2018-09-21T18:33:01.164Z,0.00
2018-09-21T18:34:01.120Z,0.00
2018-09-21T18:35:54.420Z,0.00
2018-09-21T18:36:54.385Z,0.00
2018-09-21T18:38:47.711Z,0.00
2018-09-21T18:39:47.672Z,0.00
2018-09-21T18:41:40.960Z,0.00
2018-09-21T18:42:40.939Z,0.00
2018-09-21T18:44:34.301Z,0.00
2018-09-21T18:45:34.220Z,0.00
2018-09-21T18:47:27.537Z,0.00
2018-09-21T18:48:27.494Z,0.00
2018-09-21T18:50:20.858Z,0.00
2018-09-21T18:51:20.757Z,0.00
2018-09-21T18:53:14.076Z,0.00